Flight Track Log - Related Links

Times and Time Zones

All times are in EDT time to prevent confusion due to time zone crossing. See the N960DL flight status page for this flight to view local times or setup timezone preferences in your user account.

Time Position Orientation Groundspeed Altitude Reporting Facility
EDT Latitude Longitude Course Direction KTS MPH feet Rate Location/Type
Sun 07:56:34 PM 35.0167 -89.9667 98° East 170 196 1,700  Level KMEM
Sun 07:57:34 PM 34.9667 -89.9667 180° South 246 283 3,400 2,600 Climbing KMEM
Sun 07:58:34 PM 34.9333 -89.8833 116° Southeast 288 331 6,900 2,663 Climbing KMEM
Sun 07:59:00 PM 34.9308 -89.4892 103° East  Level Estimated
Sun 08:00:00 PM 34.9222 -89.3632 95° East  Level FlightAware Approximate
Sun 08:00:32 PM 34.9242 -89.6858 93° East 312 359 11,300  Level Memphis Center
Sun 08:01:00 PM 34.8934 -89.2418 98° East  Level Estimated
Sun 08:01:32 PM 34.9150 -89.5542 95° East 355 409 13,500  Level Memphis Center
Sun 08:02:32 PM 34.9100 -89.4175 93° East 390 449 16,100 2,400 Climbing Memphis Center
Sun 08:03:32 PM 34.9067 -89.2758 92° East 413 475 18,300 2,250 Climbing Memphis Center
Sun 08:04:32 PM 34.8989 -89.1292 94° East 425 489 20,600 2,100 Climbing Memphis Center
Sun 08:05:32 PM 34.8744 -88.9775 101° East 444 511 22,500 1,700 Climbing Memphis Center
Sun 08:06:32 PM 34.8475 -88.8261 102° East 458 527 24,000 1,600 Climbing Memphis Center
Sun 08:07:32 PM 34.8250 -88.6850 101° East 463 533 25,700 1,800 Climbing Memphis Center
Sun 08:08:32 PM 34.7956 -88.5261 103° East 474 545 27,600 1,700 Climbing Memphis Center
Sun 08:09:32 PM 34.7639 -88.3600 103° East 466 536 29,100 1,550 Climbing Memphis Center
Sun 08:10:32 PM 34.7361 -88.2014 102° East 471 542 30,700 950 Climbing Memphis Center
Sun 08:11:32 PM 34.7083 -88.0506 103° East 494 568 31,000 150 Climbing Memphis Center
Sun 08:12:32 PM 34.6825 -87.8972 102° East 478 550 31,000  Level Memphis Center
Sun 08:13:32 PM 34.6519 -87.7264 102° East 478 550 31,000  Level Memphis Center
Sun 08:14:32 PM 34.6253 -87.5683 102° East 472 543 31,000  Level Memphis Center
Sun 08:15:32 PM 34.6011 -87.4203 101° East 452 520 31,000  Level Memphis Center
Sun 08:16:08 PM 34.5875 -87.3189 99° East 453 521 31,000  Level Atlanta Center
Sun 08:17:08 PM 34.5603 -87.1664 102° East 491 565 31,000  Level Atlanta Center
Sun 08:18:08 PM 34.5328 -87.0092 102° East 473 544 31,000  Level Atlanta Center
Sun 08:19:08 PM 34.5067 -86.8744 103° East 467 537 31,000 -200 Level Atlanta Center
Sun 08:20:08 PM 34.4789 -86.7200 102° East 467 537 30,600 -450 Descending Atlanta Center
Sun 08:21:08 PM 34.4489 -86.5603 103° East 472 543 30,100 -500 Descending Atlanta Center
Sun 08:22:08 PM 34.4206 -86.4033 102° East 472 543 29,600 -500 Descending Atlanta Center
Sun 08:23:08 PM 34.3903 -86.2464 103° East 472 543 29,100 -500 Descending Atlanta Center
Sun 08:24:08 PM 34.3572 -86.0947 105° East 472 543 28,600 -500 Descending Atlanta Center
Sun 08:25:08 PM 34.3286 -85.9406 103° East 472 543 28,100 -1,000 Descending Atlanta Center
Sun 08:26:08 PM 34.2975 -85.7764 103° East 465 535 26,600 -1,700 Descending Atlanta Center
Sun 08:27:08 PM 34.2703 -85.6250 102° East 460 529 24,700 -1,850 Descending Atlanta Center
Sun 08:28:08 PM 34.2428 -85.4939 104° East 450 518 22,900 -2,000 Descending Atlanta Center
Sun 08:29:08 PM 34.2131 -85.3575 105° East 433 498 20,700 -2,400 Descending Atlanta Center
Sun 08:30:08 PM 34.1872 -85.2242 103° East 412 474 18,100 -2,400 Descending Atlanta Center
Sun 08:31:08 PM 34.1508 -85.0981 109° East 397 457 15,900 -2,050 Descending Atlanta Center
Sun 08:32:08 PM 34.0786 -85.0019 132° Southeast 382 440 14,000 -1,200 Descending Atlanta Center
Sun 08:33:08 PM 34.0061 -84.9108 134° Southeast 382 440 13,500 -500 Descending Atlanta Center
Sun 08:34:08 PM 33.9336 -84.8200 134° Southeast 382 440 13,000 -600 Descending Atlanta Center
Sun 08:35:08 PM 33.8611 -84.7292 134° Southeast 382 440 12,300 -612 Descending Atlanta Center
Sun 08:35:46 PM 33.8000 -84.6500 133° Southeast 365 420 12,000 -184 Descending Atlanta TRACON
Sun 08:36:46 PM 33.7500 -84.5833 132° Southeast 289 333 12,000 -850 Level Atlanta TRACON
Sun 08:37:46 PM 33.7333 -84.5000 104° East 257 296 10,300 -1,842 Descending Atlanta TRACON
Sun 08:38:40 PM 33.7333 -84.4333 90° East 255 293 8,500 -2,053 Descending Atlanta TRACON
Sun 08:39:40 PM 33.7333 -84.3500 90° East 238 274 6,400 -2,100 Descending Atlanta TRACON
Sun 08:40:40 PM 33.7333 -84.2833 90° East 233 268 4,300 -1,667 Descending Atlanta TRACON
Sun 08:41:46 PM 33.6667 -84.2667 168° South 228 262 2,900 -1,273 Descending Atlanta TRACON

Login

Don't have an account? Register now (free) for customized features, flight alerts, and more!